sensor_id;sensor_type;location;lat;lon;timestamp;P1;durP1;ratioP1;P2;durP2;ratioP2
19891;SDS011;10108;50.142;8.724;2023-10-09T00:01:03;10.75;;;4.47;;
19891;SDS011;10108;50.142;8.724;2023-10-09T00:03:30;9.38;;;4.15;;
19891;SDS011;10108;50.142;8.724;2023-10-09T00:05:57;8.98;;;3.90;;
19891;SDS011;10108;50.142;8.724;2023-10-09T00:08:24;12.15;;;3.85;;
19891;SDS011;10108;50.142;8.724;2023-10-09T00:10:57;9.18;;;4.00;;
19891;SDS011;10108;50.142;8.724;2023-10-09T00:13:25;10.60;;;4.30;;
19891;SDS011;10108;50.142;8.724;2023-10-09T00:15:57;10.60;;;3.75;;
19891;SDS011;10108;50.142;8.724;2023-10-09T00:18:26;9.55;;;4.00;;
19891;SDS011;10108;50.142;8.724;2023-10-09T00:20:56;9.93;;;3.78;;
19891;SDS011;10108;50.142;8.724;2023-10-09T00:23:27;11.27;;;4.10;;
19891;SDS011;10108;50.142;8.724;2023-10-09T00:25:53;10.07;;;4.38;;
19891;SDS011;10108;50.142;8.724;2023-10-09T00:28:52;10.05;;;3.92;;
19891;SDS011;10108;50.142;8.724;2023-10-09T00:31:19;10.68;;;4.38;;
19891;SDS011;10108;50.142;8.724;2023-10-09T00:33:53;10.10;;;3.95;;
19891;SDS011;10108;50.142;8.724;2023-10-09T00:36:20;10.07;;;4.45;;
19891;SDS011;10108;50.142;8.724;2023-10-09T00:38:53;8.23;;;4.00;;
19891;SDS011;10108;50.142;8.724;2023-10-09T00:41:20;10.68;;;4.85;;
19891;SDS011;10108;50.142;8.724;2023-10-09T00:43:51;10.50;;;4.63;;
19891;SDS011;10108;50.142;8.724;2023-10-09T00:46:19;9.05;;;4.30;;
19891;SDS011;10108;50.142;8.724;2023-10-09T00:48:47;8.52;;;4.00;;
19891;SDS011;10108;50.142;8.724;2023-10-09T00:51:16;11.40;;;4.47;;
19891;SDS011;10108;50.142;8.724;2023-10-09T00:53:53;11.27;;;3.92;;
19891;SDS011;10108;50.142;8.724;2023-10-09T00:56:20;8.30;;;4.30;;
19891;SDS011;10108;50.142;8.724;2023-10-09T00:58:50;10.05;;;4.00;;
19891;SDS011;10108;50.142;8.724;2023-10-09T01:01:24;10.68;;;4.38;;
19891;SDS011;10108;50.142;8.724;2023-10-09T01:04:06;10.98;;;4.57;;
19891;SDS011;10108;50.142;8.724;2023-10-09T01:06:39;11.48;;;4.40;;
19891;SDS011;10108;50.142;8.724;2023-10-09T01:09:11;9.15;;;4.22;;
19891;SDS011;10108;50.142;8.724;2023-10-09T01:11:40;9.85;;;4.45;;
19891;SDS011;10108;50.142;8.724;2023-10-09T01:14:24;9.60;;;4.00;;
19891;SDS011;10108;50.142;8.724;2023-10-09T01:16:50;9.40;;;4.45;;
19891;SDS011;10108;50.142;8.724;2023-10-09T01:19:20;11.50;;;4.30;;
19891;SDS011;10108;50.142;8.724;2023-10-09T01:21:53;9.68;;;4.45;;
19891;SDS011;10108;50.142;8.724;2023-10-09T01:24:20;10.52;;;4.60;;
19891;SDS011;10108;50.142;8.724;2023-10-09T01:26:48;8.73;;;4.72;;
19891;SDS011;10108;50.142;8.724;2023-10-09T01:29:19;12.38;;;5.07;;
19891;SDS011;10108;50.142;8.724;2023-10-09T01:31:49;9.38;;;4.63;;
19891;SDS011;10108;50.142;8.724;2023-10-09T01:34:29;10.85;;;4.57;;
19891;SDS011;10108;50.142;8.724;2023-10-09T01:37:10;13.00;;;5.43;;
19891;SDS011;10108;50.142;8.724;2023-10-09T01:39:55;10.75;;;5.10;;
19891;SDS011;10108;50.142;8.724;2023-10-09T01:42:25;15.07;;;5.15;;
19891;SDS011;10108;50.142;8.724;2023-10-09T01:45:10;10.02;;;4.82;;
19891;SDS011;10108;50.142;8.724;2023-10-09T01:47:38;11.00;;;4.90;;
19891;SDS011;10108;50.142;8.724;2023-10-09T01:50:05;10.77;;;5.40;;
19891;SDS011;10108;50.142;8.724;2023-10-09T01:52:37;9.55;;;4.78;;
19891;SDS011;10108;50.142;8.724;2023-10-09T01:55:04;9.50;;;4.80;;
19891;SDS011;10108;50.142;8.724;2023-10-09T01:57:33;12.48;;;5.13;;
19891;SDS011;10108;50.142;8.724;2023-10-09T02:00:00;12.20;;;4.97;;
19891;SDS011;10108;50.142;8.724;2023-10-09T02:02:37;13.25;;;4.88;;
19891;SDS011;10108;50.142;8.724;2023-10-09T02:05:08;10.65;;;4.72;;
19891;SDS011;10108;50.142;8.724;2023-10-09T02:07:38;13.50;;;4.75;;
19891;SDS011;10108;50.142;8.724;2023-10-09T02:10:10;10.07;;;4.53;;
19891;SDS011;10108;50.142;8.724;2023-10-09T02:12:51;14.00;;;4.80;;
19891;SDS011;10108;50.142;8.724;2023-10-09T02:15:30;11.23;;;4.88;;
19891;SDS011;10108;50.142;8.724;2023-10-09T02:18:09;8.45;;;4.43;;
19891;SDS011;10108;50.142;8.724;2023-10-09T02:20:44;15.00;;;4.65;;
19891;SDS011;10108;50.142;8.724;2023-10-09T02:23:20;11.13;;;4.95;;
19891;SDS011;10108;50.142;8.724;2023-10-09T02:25:57;12.52;;;5.30;;
19891;SDS011;10108;50.142;8.724;2023-10-09T02:28:27;10.25;;;4.55;;
19891;SDS011;10108;50.142;8.724;2023-10-09T02:30:58;9.18;;;4.97;;
19891;SDS011;10108;50.142;8.724;2023-10-09T02:33:27;11.70;;;4.85;;
19891;SDS011;10108;50.142;8.724;2023-10-09T02:35:54;9.20;;;4.72;;
19891;SDS011;10108;50.142;8.724;2023-10-09T02:38:25;11.40;;;5.10;;
19891;SDS011;10108;50.142;8.724;2023-10-09T02:40:52;11.27;;;4.88;;
19891;SDS011;10108;50.142;8.724;2023-10-09T02:43:31;9.98;;;4.72;;
19891;SDS011;10108;50.142;8.724;2023-10-09T02:46:11;8.45;;;4.57;;
19891;SDS011;10108;50.142;8.724;2023-10-09T02:48:47;11.63;;;4.72;;
19891;SDS011;10108;50.142;8.724;2023-10-09T02:51:21;11.82;;;5.00;;
19891;SDS011;10108;50.142;8.724;2023-10-09T02:53:51;12.00;;;4.97;;
19891;SDS011;10108;50.142;8.724;2023-10-09T02:56:17;13.25;;;5.13;;
19891;SDS011;10108;50.142;8.724;2023-10-09T02:58:55;12.10;;;5.00;;
19891;SDS011;10108;50.142;8.724;2023-10-09T03:01:31;11.15;;;4.78;;
19891;SDS011;10108;50.142;8.724;2023-10-09T03:04:00;12.88;;;4.65;;
19891;SDS011;10108;50.142;8.724;2023-10-09T03:06:28;10.82;;;4.95;;
19891;SDS011;10108;50.142;8.724;2023-10-09T03:08:57;14.07;;;4.90;;
19891;SDS011;10108;50.142;8.724;2023-10-09T03:11:24;10.07;;;4.68;;
19891;SDS011;10108;50.142;8.724;2023-10-09T03:13:52;11.57;;;5.00;;
19891;SDS011;10108;50.142;8.724;2023-10-09T03:16:20;11.73;;;4.63;;
19891;SDS011;10108;50.142;8.724;2023-10-09T03:18:47;11.23;;;4.43;;
19891;SDS011;10108;50.142;8.724;2023-10-09T03:21:15;8.95;;;4.55;;
19891;SDS011;10108;50.142;8.724;2023-10-09T03:23:43;10.07;;;4.88;;
19891;SDS011;10108;50.142;8.724;2023-10-09T03:26:09;14.27;;;4.95;;
19891;SDS011;10108;50.142;8.724;2023-10-09T03:28:36;12.57;;;5.10;;
19891;SDS011;10108;50.142;8.724;2023-10-09T03:31:02;11.50;;;5.05;;
19891;SDS011;10108;50.142;8.724;2023-10-09T03:33:31;11.15;;;5.10;;
19891;SDS011;10108;50.142;8.724;2023-10-09T03:36:01;10.48;;;4.85;;
19891;SDS011;10108;50.142;8.724;2023-10-09T03:38:33;14.13;;;5.32;;
19891;SDS011;10108;50.142;8.724;2023-10-09T03:41:03;17.08;;;5.10;;
19891;SDS011;10108;50.142;8.724;2023-10-09T03:43:36;11.65;;;5.30;;
19891;SDS011;10108;50.142;8.724;2023-10-09T03:46:11;9.98;;;5.35;;
19891;SDS011;10108;50.142;8.724;2023-10-09T03:48:48;11.13;;;5.78;;
19891;SDS011;10108;50.142;8.724;2023-10-09T03:51:15;12.48;;;5.63;;
19891;SDS011;10108;50.142;8.724;2023-10-09T03:53:48;14.75;;;5.78;;
19891;SDS011;10108;50.142;8.724;2023-10-09T03:56:14;15.10;;;6.82;;
19891;SDS011;10108;50.142;8.724;2023-10-09T03:58:43;19.05;;;6.78;;
19891;SDS011;10108;50.142;8.724;2023-10-09T04:01:14;15.68;;;6.55;;
19891;SDS011;10108;50.142;8.724;2023-10-09T04:04:05;13.15;;;6.00;;
19891;SDS011;10108;50.142;8.724;2023-10-09T04:06:33;17.42;;;6.55;;
19891;SDS011;10108;50.142;8.724;2023-10-09T04:09:00;16.55;;;6.47;;
19891;SDS011;10108;50.142;8.724;2023-10-09T04:11:39;14.05;;;6.82;;
19891;SDS011;10108;50.142;8.724;2023-10-09T04:14:12;18.85;;;7.43;;
19891;SDS011;10108;50.142;8.724;2023-10-09T04:16:51;21.23;;;7.55;;
19891;SDS011;10108;50.142;8.724;2023-10-09T04:19:29;19.35;;;7.53;;
19891;SDS011;10108;50.142;8.724;2023-10-09T04:22:03;17.15;;;7.10;;
19891;SDS011;10108;50.142;8.724;2023-10-09T04:24:33;15.57;;;7.38;;
19891;SDS011;10108;50.142;8.724;2023-10-09T04:27:09;15.68;;;6.97;;
19891;SDS011;10108;50.142;8.724;2023-10-09T04:29:36;15.32;;;7.20;;
19891;SDS011;10108;50.142;8.724;2023-10-09T04:32:12;14.93;;;6.80;;
19891;SDS011;10108;50.142;8.724;2023-10-09T04:34:42;16.73;;;7.15;;
19891;SDS011;10108;50.142;8.724;2023-10-09T04:37:15;16.88;;;7.35;;
19891;SDS011;10108;50.142;8.724;2023-10-09T04:40:00;16.50;;;7.25;;
19891;SDS011;10108;50.142;8.724;2023-10-09T04:42:36;18.30;;;6.78;;
19891;SDS011;10108;50.142;8.724;2023-10-09T04:45:05;14.00;;;7.18;;
19891;SDS011;10108;50.142;8.724;2023-10-09T04:47:33;15.88;;;7.60;;
19891;SDS011;10108;50.142;8.724;2023-10-09T04:50:06;18.25;;;7.60;;
19891;SDS011;10108;50.142;8.724;2023-10-09T04:52:37;20.15;;;7.05;;
19891;SDS011;10108;50.142;8.724;2023-10-09T04:55:04;24.00;;;7.63;;
19891;SDS011;10108;50.142;8.724;2023-10-09T04:57:40;15.13;;;7.13;;
19891;SDS011;10108;50.142;8.724;2023-10-09T05:00:07;20.98;;;7.88;;
19891;SDS011;10108;50.142;8.724;2023-10-09T05:02:56;16.25;;;7.22;;
19891;SDS011;10108;50.142;8.724;2023-10-09T05:05:28;22.80;;;7.70;;
19891;SDS011;10108;50.142;8.724;2023-10-09T05:10:50;16.75;;;7.95;;
19891;SDS011;10108;50.142;8.724;2023-10-09T05:13:27;17.05;;;7.70;;
19891;SDS011;10108;50.142;8.724;2023-10-09T05:16:13;17.95;;;7.60;;
19891;SDS011;10108;50.142;8.724;2023-10-09T05:18:52;16.63;;;7.47;;
19891;SDS011;10108;50.142;8.724;2023-10-09T05:21:23;18.10;;;7.70;;
19891;SDS011;10108;50.142;8.724;2023-10-09T05:23:59;16.45;;;6.97;;
19891;SDS011;10108;50.142;8.724;2023-10-09T05:26:37;16.77;;;7.05;;
19891;SDS011;10108;50.142;8.724;2023-10-09T05:29:27;18.33;;;7.80;;
19891;SDS011;10108;50.142;8.724;2023-10-09T05:31:54;17.42;;;7.28;;
19891;SDS011;10108;50.142;8.724;2023-10-09T05:34:39;21.67;;;7.65;;
19891;SDS011;10108;50.142;8.724;2023-10-09T05:37:27;25.00;;;7.68;;
19891;SDS011;10108;50.142;8.724;2023-10-09T05:40:00;15.02;;;7.07;;
19891;SDS011;10108;50.142;8.724;2023-10-09T05:42:27;16.45;;;7.10;;
19891;SDS011;10108;50.142;8.724;2023-10-09T05:45:11;18.13;;;7.55;;
19891;SDS011;10108;50.142;8.724;2023-10-09T05:47:51;19.05;;;7.40;;
19891;SDS011;10108;50.142;8.724;2023-10-09T05:50:26;17.40;;;6.85;;
19891;SDS011;10108;50.142;8.724;2023-10-09T05:52:53;18.92;;;7.40;;
19891;SDS011;10108;50.142;8.724;2023-10-09T05:55:20;19.08;;;6.93;;
19891;SDS011;10108;50.142;8.724;2023-10-09T05:57:53;15.98;;;6.72;;
19891;SDS011;10108;50.142;8.724;2023-10-09T06:00:39;16.58;;;6.82;;
19891;SDS011;10108;50.142;8.724;2023-10-09T06:03:24;18.33;;;7.20;;
19891;SDS011;10108;50.142;8.724;2023-10-09T06:06:13;14.52;;;7.45;;
19891;SDS011;10108;50.142;8.724;2023-10-09T06:09:02;19.15;;;7.55;;
19891;SDS011;10108;50.142;8.724;2023-10-09T06:11:34;15.20;;;7.35;;
19891;SDS011;10108;50.142;8.724;2023-10-09T06:14:04;18.13;;;7.50;;
19891;SDS011;10108;50.142;8.724;2023-10-09T06:16:34;15.88;;;7.13;;
19891;SDS011;10108;50.142;8.724;2023-10-09T06:19:07;15.57;;;6.82;;
19891;SDS011;10108;50.142;8.724;2023-10-09T06:21:40;17.25;;;7.10;;
19891;SDS011;10108;50.142;8.724;2023-10-09T06:24:07;18.65;;;7.10;;
19891;SDS011;10108;50.142;8.724;2023-10-09T06:26:41;20.33;;;7.00;;
19891;SDS011;10108;50.142;8.724;2023-10-09T06:29:28;15.82;;;7.22;;
19891;SDS011;10108;50.142;8.724;2023-10-09T06:32:02;19.08;;;7.63;;
19891;SDS011;10108;50.142;8.724;2023-10-09T06:34:42;15.95;;;7.05;;
19891;SDS011;10108;50.142;8.724;2023-10-09T06:37:10;15.85;;;7.32;;
19891;SDS011;10108;50.142;8.724;2023-10-09T06:40:00;20.08;;;7.88;;
19891;SDS011;10108;50.142;8.724;2023-10-09T06:42:44;16.63;;;7.03;;
19891;SDS011;10108;50.142;8.724;2023-10-09T06:45:16;18.17;;;7.22;;
19891;SDS011;10108;50.142;8.724;2023-10-09T06:47:45;15.57;;;6.75;;
19891;SDS011;10108;50.142;8.724;2023-10-09T06:50:22;25.20;;;7.18;;
19891;SDS011;10108;50.142;8.724;2023-10-09T06:52:52;17.02;;;7.00;;
19891;SDS011;10108;50.142;8.724;2023-10-09T06:55:37;22.83;;;7.85;;
19891;SDS011;10108;50.142;8.724;2023-10-09T06:58:20;20.23;;;7.78;;
19891;SDS011;10108;50.142;8.724;2023-10-09T07:00:54;20.75;;;7.28;;
19891;SDS011;10108;50.142;8.724;2023-10-09T07:03:27;17.33;;;7.30;;
19891;SDS011;10108;50.142;8.724;2023-10-09T07:06:08;18.38;;;6.90;;
19891;SDS011;10108;50.142;8.724;2023-10-09T07:08:50;17.15;;;6.78;;
19891;SDS011;10108;50.142;8.724;2023-10-09T07:11:40;18.73;;;6.85;;
19891;SDS011;10108;50.142;8.724;2023-10-09T07:17:05;18.30;;;7.47;;
19891;SDS011;10108;50.142;8.724;2023-10-09T07:19:51;18.42;;;6.65;;
19891;SDS011;10108;50.142;8.724;2023-10-09T07:22:20;18.98;;;6.85;;
19891;SDS011;10108;50.142;8.724;2023-10-09T07:24:47;16.40;;;6.85;;
19891;SDS011;10108;50.142;8.724;2023-10-09T07:27:23;19.23;;;6.70;;
19891;SDS011;10108;50.142;8.724;2023-10-09T07:30:09;16.35;;;6.10;;
19891;SDS011;10108;50.142;8.724;2023-10-09T07:35:45;18.27;;;6.45;;
19891;SDS011;10108;50.142;8.724;2023-10-09T07:40:40;19.08;;;6.53;;
19891;SDS011;10108;50.142;8.724;2023-10-09T07:43:42;18.38;;;7.07;;
19891;SDS011;10108;50.142;8.724;2023-10-09T07:46:09;18.92;;;6.95;;
19891;SDS011;10108;50.142;8.724;2023-10-09T07:48:58;17.83;;;7.97;;
19891;SDS011;10108;50.142;8.724;2023-10-09T07:51:26;21.02;;;9.02;;
19891;SDS011;10108;50.142;8.724;2023-10-09T07:53:59;21.20;;;8.23;;
19891;SDS011;10108;50.142;8.724;2023-10-09T07:56:38;18.95;;;7.55;;
19891;SDS011;10108;50.142;8.724;2023-10-09T07:59:10;21.38;;;7.90;;
19891;SDS011;10108;50.142;8.724;2023-10-09T08:01:44;15.63;;;6.85;;
19891;SDS011;10108;50.142;8.724;2023-10-09T08:04:29;19.65;;;7.25;;
19891;SDS011;10108;50.142;8.724;2023-10-09T08:07:13;17.23;;;6.70;;
19891;SDS011;10108;50.142;8.724;2023-10-09T08:09:51;15.52;;;7.63;;
19891;SDS011;10108;50.142;8.724;2023-10-09T08:12:44;21.83;;;7.20;;
19891;SDS011;10108;50.142;8.724;2023-10-09T08:15:16;17.48;;;7.32;;
19891;SDS011;10108;50.142;8.724;2023-10-09T08:17:51;17.80;;;7.25;;
19891;SDS011;10108;50.142;8.724;2023-10-09T08:20:27;16.65;;;7.18;;
19891;SDS011;10108;50.142;8.724;2023-10-09T08:23:01;19.95;;;7.28;;
19891;SDS011;10108;50.142;8.724;2023-10-09T08:25:30;20.20;;;7.22;;
19891;SDS011;10108;50.142;8.724;2023-10-09T08:28:02;22.48;;;6.72;;
19891;SDS011;10108;50.142;8.724;2023-10-09T08:30:47;16.10;;;5.85;;
19891;SDS011;10108;50.142;8.724;2023-10-09T08:33:20;18.08;;;6.70;;
19891;SDS011;10108;50.142;8.724;2023-10-09T08:35:53;19.20;;;7.20;;
19891;SDS011;10108;50.142;8.724;2023-10-09T08:38:33;15.32;;;7.22;;
19891;SDS011;10108;50.142;8.724;2023-10-09T08:41:07;17.05;;;6.70;;
19891;SDS011;10108;50.142;8.724;2023-10-09T08:43:43;17.23;;;6.85;;
19891;SDS011;10108;50.142;8.724;2023-10-09T08:46:12;20.67;;;6.97;;
19891;SDS011;10108;50.142;8.724;2023-10-09T08:48:44;18.67;;;7.40;;
19891;SDS011;10108;50.142;8.724;2023-10-09T08:51:11;14.00;;;6.72;;
19891;SDS011;10108;50.142;8.724;2023-10-09T08:53:39;21.90;;;7.35;;
19891;SDS011;10108;50.142;8.724;2023-10-09T08:56:17;15.02;;;6.15;;
19891;SDS011;10108;50.142;8.724;2023-10-09T08:58:59;16.83;;;6.78;;
19891;SDS011;10108;50.142;8.724;2023-10-09T09:01:27;16.85;;;6.90;;
19891;SDS011;10108;50.142;8.724;2023-10-09T09:03:57;17.02;;;6.93;;
19891;SDS011;10108;50.142;8.724;2023-10-09T09:06:25;15.75;;;6.65;;
19891;SDS011;10108;50.142;8.724;2023-10-09T09:08:52;16.60;;;7.40;;
19891;SDS011;10108;50.142;8.724;2023-10-09T09:11:27;16.70;;;6.72;;
19891;SDS011;10108;50.142;8.724;2023-10-09T09:14:04;21.40;;;7.00;;
19891;SDS011;10108;50.142;8.724;2023-10-09T09:16:44;17.67;;;6.50;;
19891;SDS011;10108;50.142;8.724;2023-10-09T09:19:14;22.75;;;7.00;;
19891;SDS011;10108;50.142;8.724;2023-10-09T09:21:48;15.13;;;7.05;;
19891;SDS011;10108;50.142;8.724;2023-10-09T09:24:14;19.83;;;7.32;;
19891;SDS011;10108;50.142;8.724;2023-10-09T09:26:41;24.80;;;7.53;;
19891;SDS011;10108;50.142;8.724;2023-10-09T09:29:11;16.73;;;6.45;;
19891;SDS011;10108;50.142;8.724;2023-10-09T09:31:38;17.40;;;7.18;;
19891;SDS011;10108;50.142;8.724;2023-10-09T09:34:05;17.80;;;7.15;;
19891;SDS011;10108;50.142;8.724;2023-10-09T09:39:21;16.95;;;6.72;;
19891;SDS011;10108;50.142;8.724;2023-10-09T09:41:53;19.52;;;6.90;;
19891;SDS011;10108;50.142;8.724;2023-10-09T09:44:22;18.98;;;6.70;;
19891;SDS011;10108;50.142;8.724;2023-10-09T09:46:57;15.75;;;6.93;;
19891;SDS011;10108;50.142;8.724;2023-10-09T09:49:26;17.33;;;6.45;;
19891;SDS011;10108;50.142;8.724;2023-10-09T09:51:58;17.55;;;7.07;;
19891;SDS011;10108;50.142;8.724;2023-10-09T09:54:26;15.07;;;6.95;;
19891;SDS011;10108;50.142;8.724;2023-10-09T09:56:58;19.52;;;6.80;;
19891;SDS011;10108;50.142;8.724;2023-10-09T09:59:26;20.52;;;7.07;;
19891;SDS011;10108;50.142;8.724;2023-10-09T10:01:56;18.02;;;6.85;;
19891;SDS011;10108;50.142;8.724;2023-10-09T10:04:26;19.70;;;6.93;;
19891;SDS011;10108;50.142;8.724;2023-10-09T10:06:52;14.70;;;6.40;;
19891;SDS011;10108;50.142;8.724;2023-10-09T10:09:36;21.08;;;7.35;;
19891;SDS011;10108;50.142;8.724;2023-10-09T10:12:08;16.92;;;6.78;;
19891;SDS011;10108;50.142;8.724;2023-10-09T10:14:58;18.83;;;6.43;;
19891;SDS011;10108;50.142;8.724;2023-10-09T10:17:32;13.35;;;5.88;;
19891;SDS011;10108;50.142;8.724;2023-10-09T10:20:18;16.88;;;6.15;;
19891;SDS011;10108;50.142;8.724;2023-10-09T10:22:45;18.48;;;6.90;;
19891;SDS011;10108;50.142;8.724;2023-10-09T10:28:17;21.60;;;7.40;;
19891;SDS011;10108;50.142;8.724;2023-10-09T10:30:54;15.80;;;6.30;;
19891;SDS011;10108;50.142;8.724;2023-10-09T10:33:20;20.95;;;7.00;;
19891;SDS011;10108;50.142;8.724;2023-10-09T10:35:52;18.27;;;7.13;;
19891;SDS011;10108;50.142;8.724;2023-10-09T10:38:33;14.98;;;6.10;;
19891;SDS011;10108;50.142;8.724;2023-10-09T10:41:09;17.15;;;6.80;;
19891;SDS011;10108;50.142;8.724;2023-10-09T10:43:37;19.08;;;7.20;;
19891;SDS011;10108;50.142;8.724;2023-10-09T10:46:13;19.17;;;6.45;;
19891;SDS011;10108;50.142;8.724;2023-10-09T10:49:05;16.50;;;6.68;;
19891;SDS011;10108;50.142;8.724;2023-10-09T10:51:38;15.45;;;6.38;;
19891;SDS011;10108;50.142;8.724;2023-10-09T10:54:05;14.38;;;6.25;;
19891;SDS011;10108;50.142;8.724;2023-10-09T10:56:50;18.23;;;6.68;;
19891;SDS011;10108;50.142;8.724;2023-10-09T10:59:17;24.60;;;7.05;;
19891;SDS011;10108;50.142;8.724;2023-10-09T11:01:51;16.10;;;5.97;;
19891;SDS011;10108;50.142;8.724;2023-10-09T11:04:27;12.88;;;5.50;;
19891;SDS011;10108;50.142;8.724;2023-10-09T11:06:57;19.40;;;6.13;;
19891;SDS011;10108;50.142;8.724;2023-10-09T11:12:29;13.35;;;5.68;;
19891;SDS011;10108;50.142;8.724;2023-10-09T11:15:12;9.80;;;4.70;;
19891;SDS011;10108;50.142;8.724;2023-10-09T11:20:51;16.48;;;6.25;;
19891;SDS011;10108;50.142;8.724;2023-10-09T11:23:34;21.00;;;6.72;;
19891;SDS011;10108;50.142;8.724;2023-10-09T11:26:08;20.73;;;5.88;;
19891;SDS011;10108;50.142;8.724;2023-10-09T11:34:44;10.45;;;5.68;;
19891;SDS011;10108;50.142;8.724;2023-10-09T11:37:18;16.95;;;7.10;;
19891;SDS011;10108;50.142;8.724;2023-10-09T11:39:59;16.27;;;6.45;;
19891;SDS011;10108;50.142;8.724;2023-10-09T11:42:27;12.13;;;5.38;;
19891;SDS011;10108;50.142;8.724;2023-10-09T11:45:22;14.13;;;4.72;;
19891;SDS011;10108;50.142;8.724;2023-10-09T11:47:51;12.43;;;5.20;;
19891;SDS011;10108;50.142;8.724;2023-10-09T11:53:39;14.15;;;5.93;;
19891;SDS011;10108;50.142;8.724;2023-10-09T11:56:08;13.20;;;6.18;;
19891;SDS011;10108;50.142;8.724;2023-10-09T11:58:48;15.95;;;6.07;;
19891;SDS011;10108;50.142;8.724;2023-10-09T12:01:19;15.75;;;5.80;;
19891;SDS011;10108;50.142;8.724;2023-10-09T12:03:46;14.43;;;6.28;;
19891;SDS011;10108;50.142;8.724;2023-10-09T12:06:19;12.50;;;5.38;;
19891;SDS011;10108;50.142;8.724;2023-10-09T12:08:48;15.10;;;6.53;;
19891;SDS011;10108;50.142;8.724;2023-10-09T12:11:17;13.18;;;5.20;;
19891;SDS011;10108;50.142;8.724;2023-10-09T12:13:48;12.52;;;5.70;;
19891;SDS011;10108;50.142;8.724;2023-10-09T12:16:22;16.25;;;5.65;;
19891;SDS011;10108;50.142;8.724;2023-10-09T12:18:53;11.57;;;4.63;;
19891;SDS011;10108;50.142;8.724;2023-10-09T12:21:20;11.52;;;5.72;;
19891;SDS011;10108;50.142;8.724;2023-10-09T12:23:48;14.38;;;6.45;;
19891;SDS011;10108;50.142;8.724;2023-10-09T12:26:15;13.68;;;5.22;;
19891;SDS011;10108;50.142;8.724;2023-10-09T12:28:42;12.57;;;5.57;;
19891;SDS011;10108;50.142;8.724;2023-10-09T12:31:13;16.98;;;6.85;;
19891;SDS011;10108;50.142;8.724;2023-10-09T12:33:46;11.93;;;5.22;;
19891;SDS011;10108;50.142;8.724;2023-10-09T12:36:15;11.40;;;5.35;;
19891;SDS011;10108;50.142;8.724;2023-10-09T12:38:48;17.08;;;5.70;;
19891;SDS011;10108;50.142;8.724;2023-10-09T12:41:19;13.05;;;5.95;;
19891;SDS011;10108;50.142;8.724;2023-10-09T12:43:53;14.50;;;5.60;;
19891;SDS011;10108;50.142;8.724;2023-10-09T12:46:20;16.02;;;5.93;;
19891;SDS011;10108;50.142;8.724;2023-10-09T12:48:49;16.20;;;5.88;;
19891;SDS011;10108;50.142;8.724;2023-10-09T12:51:16;16.77;;;6.25;;
19891;SDS011;10108;50.142;8.724;2023-10-09T12:53:42;15.75;;;5.55;;
19891;SDS011;10108;50.142;8.724;2023-10-09T12:56:09;15.25;;;6.50;;
19891;SDS011;10108;50.142;8.724;2023-10-09T12:58:37;14.95;;;6.40;;
19891;SDS011;10108;50.142;8.724;2023-10-09T13:01:05;15.25;;;6.00;;
19891;SDS011;10108;50.142;8.724;2023-10-09T13:03:40;14.88;;;6.07;;
19891;SDS011;10108;50.142;8.724;2023-10-09T13:06:06;13.85;;;5.60;;
19891;SDS011;10108;50.142;8.724;2023-10-09T13:08:35;14.00;;;5.78;;
19891;SDS011;10108;50.142;8.724;2023-10-09T13:11:06;13.73;;;5.32;;
19891;SDS011;10108;50.142;8.724;2023-10-09T13:13:40;12.98;;;5.18;;
19891;SDS011;10108;50.142;8.724;2023-10-09T13:18:43;15.05;;;6.50;;
19891;SDS011;10108;50.142;8.724;2023-10-09T13:21:22;13.18;;;5.80;;
19891;SDS011;10108;50.142;8.724;2023-10-09T13:23:50;11.45;;;5.95;;
19891;SDS011;10108;50.142;8.724;2023-10-09T13:26:17;13.07;;;5.70;;
19891;SDS011;10108;50.142;8.724;2023-10-09T13:28:48;13.07;;;5.88;;
19891;SDS011;10108;50.142;8.724;2023-10-09T13:31:15;17.05;;;6.45;;
19891;SDS011;10108;50.142;8.724;2023-10-09T13:33:42;14.50;;;6.28;;
19891;SDS011;10108;50.142;8.724;2023-10-09T13:36:13;14.15;;;6.20;;
19891;SDS011;10108;50.142;8.724;2023-10-09T13:38:47;14.70;;;6.05;;
19891;SDS011;10108;50.142;8.724;2023-10-09T13:41:14;18.05;;;5.97;;
19891;SDS011;10108;50.142;8.724;2023-10-09T13:43:43;17.05;;;6.30;;
19891;SDS011;10108;50.142;8.724;2023-10-09T13:46:09;14.68;;;5.70;;
19891;SDS011;10108;50.142;8.724;2023-10-09T13:48:43;13.00;;;5.65;;
19891;SDS011;10108;50.142;8.724;2023-10-09T13:51:11;13.85;;;6.00;;
19891;SDS011;10108;50.142;8.724;2023-10-09T13:53:43;12.25;;;6.00;;
19891;SDS011;10108;50.142;8.724;2023-10-09T13:56:13;15.15;;;6.40;;
19891;SDS011;10108;50.142;8.724;2023-10-09T13:58:50;12.95;;;6.57;;
19891;SDS011;10108;50.142;8.724;2023-10-09T14:01:17;20.20;;;6.57;;
19891;SDS011;10108;50.142;8.724;2023-10-09T14:03:55;15.98;;;6.55;;
19891;SDS011;10108;50.142;8.724;2023-10-09T14:06:23;17.25;;;7.15;;
19891;SDS011;10108;50.142;8.724;2023-10-09T14:09:08;13.73;;;6.72;;
19891;SDS011;10108;50.142;8.724;2023-10-09T14:11:35;13.50;;;6.47;;
19891;SDS011;10108;50.142;8.724;2023-10-09T14:14:09;14.15;;;6.43;;
19891;SDS011;10108;50.142;8.724;2023-10-09T14:16:37;23.65;;;7.15;;
19891;SDS011;10108;50.142;8.724;2023-10-09T14:19:08;17.00;;;6.95;;
19891;SDS011;10108;50.142;8.724;2023-10-09T14:21:39;20.10;;;7.45;;
19891;SDS011;10108;50.142;8.724;2023-10-09T14:24:06;17.02;;;7.55;;
19891;SDS011;10108;50.142;8.724;2023-10-09T14:26:43;19.58;;;7.20;;
19891;SDS011;10108;50.142;8.724;2023-10-09T14:29:17;13.30;;;6.75;;
19891;SDS011;10108;50.142;8.724;2023-10-09T14:31:44;14.00;;;6.85;;
19891;SDS011;10108;50.142;8.724;2023-10-09T14:34:25;15.77;;;7.10;;
19891;SDS011;10108;50.142;8.724;2023-10-09T14:37:01;18.20;;;7.95;;
19891;SDS011;10108;50.142;8.724;2023-10-09T14:39:28;20.50;;;7.70;;
19891;SDS011;10108;50.142;8.724;2023-10-09T14:41:55;20.95;;;8.25;;
19891;SDS011;10108;50.142;8.724;2023-10-09T14:44:25;16.45;;;7.85;;
19891;SDS011;10108;50.142;8.724;2023-10-09T14:46:55;14.10;;;7.32;;
19891;SDS011;10108;50.142;8.724;2023-10-09T14:49:23;19.92;;;7.57;;
19891;SDS011;10108;50.142;8.724;2023-10-09T14:51:50;15.88;;;7.00;;
19891;SDS011;10108;50.142;8.724;2023-10-09T14:54:16;15.32;;;7.43;;
19891;SDS011;10108;50.142;8.724;2023-10-09T14:56:44;15.32;;;7.30;;
19891;SDS011;10108;50.142;8.724;2023-10-09T14:59:11;16.23;;;7.07;;
19891;SDS011;10108;50.142;8.724;2023-10-09T15:01:37;18.27;;;7.15;;
19891;SDS011;10108;50.142;8.724;2023-10-09T15:04:04;15.27;;;7.10;;
19891;SDS011;10108;50.142;8.724;2023-10-09T15:06:32;15.38;;;6.70;;
19891;SDS011;10108;50.142;8.724;2023-10-09T15:09:00;14.85;;;6.78;;
19891;SDS011;10108;50.142;8.724;2023-10-09T15:11:34;15.02;;;6.50;;
19891;SDS011;10108;50.142;8.724;2023-10-09T15:14:02;14.90;;;6.72;;
19891;SDS011;10108;50.142;8.724;2023-10-09T15:16:31;16.80;;;7.22;;
19891;SDS011;10108;50.142;8.724;2023-10-09T15:18:58;14.88;;;7.20;;
19891;SDS011;10108;50.142;8.724;2023-10-09T15:21:30;15.95;;;6.65;;
19891;SDS011;10108;50.142;8.724;2023-10-09T15:23:58;14.52;;;6.78;;
19891;SDS011;10108;50.142;8.724;2023-10-09T15:26:25;14.55;;;6.72;;
19891;SDS011;10108;50.142;8.724;2023-10-09T15:28:59;18.67;;;6.80;;
19891;SDS011;10108;50.142;8.724;2023-10-09T15:31:26;14.85;;;7.00;;
19891;SDS011;10108;50.142;8.724;2023-10-09T15:33:52;19.02;;;7.10;;
19891;SDS011;10108;50.142;8.724;2023-10-09T15:36:19;17.65;;;7.25;;
19891;SDS011;10108;50.142;8.724;2023-10-09T15:38:47;20.85;;;7.47;;
19891;SDS011;10108;50.142;8.724;2023-10-09T15:41:15;15.73;;;6.85;;
19891;SDS011;10108;50.142;8.724;2023-10-09T15:43:42;15.35;;;6.90;;